»·PEaware :: N434EP KLMT-KMFR

N434EP :: KLMT-KMFR

FLIGHT INFORMATION

Flight Status: Arrived
Operator: Privately registered:
United States
More flights under this callsign
Pilot: Drew H. (3199)
Aircraft: Unknown
(PIPA)
More flights by this aircraft type
Origin: KLMT Klamath Falls Intl
United States
Destination: KMFR Rogue Valley Intl-Medford
United States
More flights between these airports :: More routes between these airports
Route: +OTH V287 OED V122 LMT
File this flight plan on PilotEdge
Remarks:
Altitude:
(Current/Filed)
9,000ft
Speed:
(Current/Filed)
190kts
Departed: 04-Nov-18 07:55 PM
Arrived: 04-Nov-18 08:30 PM
Distance/Time
Traveled:
52nm/0:35
Distance/Time
To Go:
Arrived

Flight Plot

Page will automatically refresh every two minutes.

Flight plan parsing failed; only flown route is shown


Map Options




Map Legend


Flown Route
Filed Route
Departure Airport
Arrival Airport
Navaid (VOR, NDB)
Fix

Horizontal Profiles

Position Reports

Time Latitude Longitude Heading Altitude Ground
Speed
04-Nov-18 19:57 42.414691 -121.917645 325 10409ft 166kts
04-Nov-18 19:58 42.454778 -121.947243 325 10480ft 158kts
04-Nov-18 19:59 42.495354 -121.972436 333 10491ft 163kts
04-Nov-18 20:00 42.539913 -121.987336 344 10490ft 168kts
04-Nov-18 20:01 42.585501 -121.996400 344 10490ft 165kts
04-Nov-18 20:02 42.630689 -122.005435 343 10485ft 164kts
04-Nov-18 20:03 42.675830 -122.014387 343 10524ft 162kts
04-Nov-18 20:04 42.718539 -122.020555 347 11061ft 142kts
04-Nov-18 20:05 42.757675 -122.003354 16 11499ft 156kts
04-Nov-18 20:06 42.798785 -121.976008 15 11569ft 171kts
04-Nov-18 20:07 42.842711 -121.946555 11 11568ft 175kts
04-Nov-18 20:08 42.889554 -121.929745 4 11486ft 174kts
04-Nov-18 20:09 42.930344 -121.929361 327 11484ft 156kts
04-Nov-18 20:10 42.968441 -121.957055 323 11535ft 154kts
04-Nov-18 20:11 42.990326 -122.005142 293 11467ft 155kts
04-Nov-18 20:12 43.002737 -122.061285 287 11434ft 156kts
04-Nov-18 20:13 43.008982 -122.118300 260 11517ft 160kts
04-Nov-18 20:14 42.976352 -122.166485 230 11452ft 181kts
04-Nov-18 20:15 42.936383 -122.210339 228 11134ft 189kts
04-Nov-18 20:16 42.890949 -122.251212 227 9963ft 201kts
04-Nov-18 20:17 42.853763 -122.297910 233 9490ft 175kts
04-Nov-18 20:18 42.818506 -122.351363 235 8384ft 180kts
04-Nov-18 20:19 42.795356 -122.405609 253 8228ft 172kts
04-Nov-18 20:20 42.777890 -122.465178 242 8321ft 178kts
04-Nov-18 20:21 42.746008 -122.516364 231 8530ft 177kts
04-Nov-18 20:22 42.710156 -122.562821 230 8644ft 179kts
04-Nov-18 20:23 42.674744 -122.611787 233 8614ft 184kts
04-Nov-18 20:24 42.641779 -122.663922 236 8579ft 184kts
04-Nov-18 20:25 42.608890 -122.716762 236 8257ft 185kts
04-Nov-18 20:26 42.576153 -122.769548 235 7398ft 182kts
04-Nov-18 20:27 42.541304 -122.821215 230 6217ft 192kts
04-Nov-18 20:28 42.505537 -122.872252 232 5274ft 184kts
04-Nov-18 20:29 42.469318 -122.913191 187 3993ft 153kts
04-Nov-18 20:30 42.434753 -122.905264 156 2602ft 107kts
04-Nov-18 20:31 42.407319 -122.889972 159 1917ft 104kts
04-Nov-18 20:32 42.383626 -122.877811 157 1339ft 64kts
04-Nov-18 20:33 42.376103 -122.875028 239 1336ft 3kts
04-Nov-18 20:34 42.373266 -122.875285 180 1336ft 18kts
04-Nov-18 20:35 42.371342 -122.876695 107 1336ft 0kts
04-Nov-18 20:36 42.371342 -122.876695 107 1336ft 0kts
04-Nov-18 20:37 42.371342 -122.876695 107 1336ft 0kts
04-Nov-18 20:38 42.371342 -122.876695 107 1336ft 0kts
04-Nov-18 20:39 42.371342 -122.876695 107 1336ft 0kts
04-Nov-18 20:40 42.371342 -122.876695 107 1336ft 0kts
04-Nov-18 20:41 42.371342 -122.876695 107 1336ft 0kts
04-Nov-18 20:41 42.371342 -122.876695 107 1336ft 0kts
04-Nov-18 20:43 42.371342 -122.876695 107 1336ft 0kts
04-Nov-18 20:43 42.371342 -122.876695 107 1336ft 0kts
04-Nov-18 20:45 42.371342 -122.876695 107 1336ft 0kts
04-Nov-18 20:45 42.371342 -122.876695 107 1336ft 0kts
04-Nov-18 20:47 42.371342 -122.876695 107 1336ft 0kts

Navigation Log

Ident Type
Flight plan parsing failed, navigation log unavailable